sensor_id;sensor_type;location;lat;lon;timestamp;P1;durP1;ratioP1;P2;durP2;ratioP2
78324;SDS011;67584;51.400;6.692;2023-06-26T00:01:25;10.80;;;7.15;;
78324;SDS011;67584;51.400;6.692;2023-06-26T00:03:54;7.13;;;6.43;;
78324;SDS011;67584;51.400;6.692;2023-06-26T00:06:20;7.82;;;6.75;;
78324;SDS011;67584;51.400;6.692;2023-06-26T00:08:49;10.73;;;6.68;;
78324;SDS011;67584;51.400;6.692;2023-06-26T00:11:15;7.38;;;6.60;;
78324;SDS011;67584;51.400;6.692;2023-06-26T00:13:41;7.10;;;6.43;;
78324;SDS011;67584;51.400;6.692;2023-06-26T00:16:07;9.43;;;7.10;;
78324;SDS011;67584;51.400;6.692;2023-06-26T00:18:33;7.35;;;6.63;;
78324;SDS011;67584;51.400;6.692;2023-06-26T00:20:59;9.93;;;7.15;;
78324;SDS011;67584;51.400;6.692;2023-06-26T00:23:24;7.20;;;6.47;;
78324;SDS011;67584;51.400;6.692;2023-06-26T00:25:50;7.15;;;6.45;;
78324;SDS011;67584;51.400;6.692;2023-06-26T00:28:16;8.10;;;6.68;;
78324;SDS011;67584;51.400;6.692;2023-06-26T00:30:41;7.63;;;6.82;;
78324;SDS011;67584;51.400;6.692;2023-06-26T00:33:07;7.40;;;6.60;;
78324;SDS011;67584;51.400;6.692;2023-06-26T00:35:33;7.90;;;6.50;;
78324;SDS011;67584;51.400;6.692;2023-06-26T00:38:00;8.13;;;6.65;;
78324;SDS011;67584;51.400;6.692;2023-06-26T00:40:26;7.70;;;6.63;;
78324;SDS011;67584;51.400;6.692;2023-06-26T00:42:52;7.45;;;6.45;;
78324;SDS011;67584;51.400;6.692;2023-06-26T00:45:20;8.57;;;7.10;;
78324;SDS011;67584;51.400;6.692;2023-06-26T00:47:45;9.70;;;7.18;;
78324;SDS011;67584;51.400;6.692;2023-06-26T00:50:12;7.93;;;6.10;;
78324;SDS011;67584;51.400;6.692;2023-06-26T00:52:38;8.40;;;6.75;;
78324;SDS011;67584;51.400;6.692;2023-06-26T00:55:05;7.05;;;6.25;;
78324;SDS011;67584;51.400;6.692;2023-06-26T00:57:31;7.47;;;6.68;;
78324;SDS011;67584;51.400;6.692;2023-06-26T01:00:00;7.13;;;6.43;;
78324;SDS011;67584;51.400;6.692;2023-06-26T01:02:26;7.43;;;6.63;;
78324;SDS011;67584;51.400;6.692;2023-06-26T01:04:58;8.77;;;7.10;;
78324;SDS011;67584;51.400;6.692;2023-06-26T01:07:26;8.30;;;7.60;;
78324;SDS011;67584;51.400;6.692;2023-06-26T01:09:52;9.48;;;7.32;;
78324;SDS011;67584;51.400;6.692;2023-06-26T01:12:18;9.88;;;7.43;;
78324;SDS011;67584;51.400;6.692;2023-06-26T01:14:43;11.40;;;7.40;;
78324;SDS011;67584;51.400;6.692;2023-06-26T01:17:09;8.73;;;7.47;;
78324;SDS011;67584;51.400;6.692;2023-06-26T01:19:40;8.18;;;7.30;;
78324;SDS011;67584;51.400;6.692;2023-06-26T01:22:19;8.02;;;7.07;;
78324;SDS011;67584;51.400;6.692;2023-06-26T01:25:14;9.93;;;7.78;;
78324;SDS011;67584;51.400;6.692;2023-06-26T01:27:47;9.15;;;7.38;;
78324;SDS011;67584;51.400;6.692;2023-06-26T01:30:15;9.35;;;8.00;;
78324;SDS011;67584;51.400;6.692;2023-06-26T01:32:42;7.60;;;6.30;;
78324;SDS011;67584;51.400;6.692;2023-06-26T01:35:10;14.77;;;7.80;;
78324;SDS011;67584;51.400;6.692;2023-06-26T01:37:37;10.60;;;7.43;;
78324;SDS011;67584;51.400;6.692;2023-06-26T01:40:03;8.75;;;7.22;;
78324;SDS011;67584;51.400;6.692;2023-06-26T01:42:32;9.10;;;7.40;;
78324;SDS011;67584;51.400;6.692;2023-06-26T01:45:01;8.40;;;7.45;;
78324;SDS011;67584;51.400;6.692;2023-06-26T01:47:50;8.40;;;7.55;;
78324;SDS011;67584;51.400;6.692;2023-06-26T01:50:18;8.73;;;7.00;;
78324;SDS011;67584;51.400;6.692;2023-06-26T01:53:10;9.98;;;7.60;;
78324;SDS011;67584;51.400;6.692;2023-06-26T01:58:15;9.80;;;8.13;;
78324;SDS011;67584;51.400;6.692;2023-06-26T02:00:42;9.05;;;8.07;;
78324;SDS011;67584;51.400;6.692;2023-06-26T02:03:08;9.93;;;8.90;;
78324;SDS011;67584;51.400;6.692;2023-06-26T02:05:37;9.10;;;8.05;;
78324;SDS011;67584;51.400;6.692;2023-06-26T02:08:03;9.35;;;7.28;;
78324;SDS011;67584;51.400;6.692;2023-06-26T02:10:29;7.85;;;7.05;;
78324;SDS011;67584;51.400;6.692;2023-06-26T02:12:55;8.45;;;7.40;;
78324;SDS011;67584;51.400;6.692;2023-06-26T02:15:22;8.00;;;7.30;;
78324;SDS011;67584;51.400;6.692;2023-06-26T02:17:47;8.45;;;7.25;;
78324;SDS011;67584;51.400;6.692;2023-06-26T02:20:13;10.25;;;7.65;;
78324;SDS011;67584;51.400;6.692;2023-06-26T02:22:40;8.13;;;7.22;;
78324;SDS011;67584;51.400;6.692;2023-06-26T02:25:08;9.25;;;7.63;;
78324;SDS011;67584;51.400;6.692;2023-06-26T02:27:35;11.48;;;7.28;;
78324;SDS011;67584;51.400;6.692;2023-06-26T02:30:01;8.65;;;6.95;;
78324;SDS011;67584;51.400;6.692;2023-06-26T02:32:27;8.85;;;7.53;;
78324;SDS011;67584;51.400;6.692;2023-06-26T02:34:52;9.52;;;7.20;;
78324;SDS011;67584;51.400;6.692;2023-06-26T02:37:19;8.25;;;7.40;;
78324;SDS011;67584;51.400;6.692;2023-06-26T02:39:44;7.85;;;6.93;;
78324;SDS011;67584;51.400;6.692;2023-06-26T02:42:10;8.73;;;7.55;;
78324;SDS011;67584;51.400;6.692;2023-06-26T02:44:36;8.02;;;6.95;;
78324;SDS011;67584;51.400;6.692;2023-06-26T02:47:02;8.60;;;7.70;;
78324;SDS011;67584;51.400;6.692;2023-06-26T02:49:28;8.30;;;7.43;;
78324;SDS011;67584;51.400;6.692;2023-06-26T02:51:54;8.48;;;7.60;;
78324;SDS011;67584;51.400;6.692;2023-06-26T02:54:24;10.20;;;7.03;;
78324;SDS011;67584;51.400;6.692;2023-06-26T02:56:53;9.02;;;7.40;;
78324;SDS011;67584;51.400;6.692;2023-06-26T02:59:23;8.18;;;6.93;;
78324;SDS011;67584;51.400;6.692;2023-06-26T03:01:50;9.35;;;7.25;;
78324;SDS011;67584;51.400;6.692;2023-06-26T03:04:16;7.40;;;6.68;;
78324;SDS011;67584;51.400;6.692;2023-06-26T03:06:43;8.40;;;6.55;;
78324;SDS011;67584;51.400;6.692;2023-06-26T03:09:09;7.78;;;6.50;;
78324;SDS011;67584;51.400;6.692;2023-06-26T03:11:35;8.05;;;6.68;;
78324;SDS011;67584;51.400;6.692;2023-06-26T03:14:00;8.88;;;6.22;;
78324;SDS011;67584;51.400;6.692;2023-06-26T03:16:26;7.47;;;6.32;;
78324;SDS011;67584;51.400;6.692;2023-06-26T03:18:52;8.15;;;6.68;;
78324;SDS011;67584;51.400;6.692;2023-06-26T03:21:17;7.75;;;6.90;;
78324;SDS011;67584;51.400;6.692;2023-06-26T03:23:43;8.55;;;7.75;;
78324;SDS011;67584;51.400;6.692;2023-06-26T03:26:10;6.90;;;6.20;;
78324;SDS011;67584;51.400;6.692;2023-06-26T03:28:37;8.77;;;6.43;;
78324;SDS011;67584;51.400;6.692;2023-06-26T03:31:02;8.23;;;6.68;;
78324;SDS011;67584;51.400;6.692;2023-06-26T03:33:29;6.75;;;5.97;;
78324;SDS011;67584;51.400;6.692;2023-06-26T03:35:56;7.38;;;6.65;;
78324;SDS011;67584;51.400;6.692;2023-06-26T03:38:22;8.13;;;6.32;;
78324;SDS011;67584;51.400;6.692;2023-06-26T03:40:51;6.85;;;6.13;;
78324;SDS011;67584;51.400;6.692;2023-06-26T03:43:17;8.38;;;6.32;;
78324;SDS011;67584;51.400;6.692;2023-06-26T03:45:56;7.15;;;6.43;;
78324;SDS011;67584;51.400;6.692;2023-06-26T03:48:24;6.50;;;5.25;;
78324;SDS011;67584;51.400;6.692;2023-06-26T03:50:50;7.05;;;5.95;;
78324;SDS011;67584;51.400;6.692;2023-06-26T03:53:16;10.45;;;6.50;;
78324;SDS011;67584;51.400;6.692;2023-06-26T03:55:42;7.20;;;5.88;;
78324;SDS011;67584;51.400;6.692;2023-06-26T03:58:08;6.97;;;5.57;;
78324;SDS011;67584;51.400;6.692;2023-06-26T04:00:34;6.38;;;5.50;;
78324;SDS011;67584;51.400;6.692;2023-06-26T04:03:00;7.07;;;5.72;;
78324;SDS011;67584;51.400;6.692;2023-06-26T04:05:25;7.32;;;5.88;;
78324;SDS011;67584;51.400;6.692;2023-06-26T04:07:51;8.25;;;6.40;;
78324;SDS011;67584;51.400;6.692;2023-06-26T04:10:18;8.55;;;6.88;;
78324;SDS011;67584;51.400;6.692;2023-06-26T04:12:47;7.15;;;6.25;;
78324;SDS011;67584;51.400;6.692;2023-06-26T04:15:13;8.98;;;6.65;;
78324;SDS011;67584;51.400;6.692;2023-06-26T04:17:39;8.32;;;6.70;;
78324;SDS011;67584;51.400;6.692;2023-06-26T04:20:05;7.28;;;6.45;;
78324;SDS011;67584;51.400;6.692;2023-06-26T04:22:31;7.35;;;6.60;;
78324;SDS011;67584;51.400;6.692;2023-06-26T04:24:58;8.30;;;6.20;;
78324;SDS011;67584;51.400;6.692;2023-06-26T04:27:23;8.05;;;6.45;;
78324;SDS011;67584;51.400;6.692;2023-06-26T04:29:49;9.90;;;6.47;;
78324;SDS011;67584;51.400;6.692;2023-06-26T04:32:14;7.78;;;6.95;;
78324;SDS011;67584;51.400;6.692;2023-06-26T04:34:40;8.77;;;6.90;;
78324;SDS011;67584;51.400;6.692;2023-06-26T04:37:09;8.35;;;7.20;;
78324;SDS011;67584;51.400;6.692;2023-06-26T04:39:35;8.40;;;7.18;;
78324;SDS011;67584;51.400;6.692;2023-06-26T04:42:02;9.50;;;7.40;;
78324;SDS011;67584;51.400;6.692;2023-06-26T04:44:28;9.57;;;7.53;;
78324;SDS011;67584;51.400;6.692;2023-06-26T04:46:54;8.98;;;7.18;;
78324;SDS011;67584;51.400;6.692;2023-06-26T04:49:20;9.15;;;7.13;;
78324;SDS011;67584;51.400;6.692;2023-06-26T04:51:45;8.40;;;6.88;;
78324;SDS011;67584;51.400;6.692;2023-06-26T04:54:11;6.88;;;6.22;;
78324;SDS011;67584;51.400;6.692;2023-06-26T04:56:37;7.20;;;6.00;;
78324;SDS011;67584;51.400;6.692;2023-06-26T04:59:05;8.02;;;5.97;;
78324;SDS011;67584;51.400;6.692;2023-06-26T05:01:31;8.15;;;6.18;;
78324;SDS011;67584;51.400;6.692;2023-06-26T05:03:57;7.75;;;5.97;;
78324;SDS011;67584;51.400;6.692;2023-06-26T05:06:27;9.07;;;5.93;;
78324;SDS011;67584;51.400;6.692;2023-06-26T05:08:53;6.28;;;5.43;;
78324;SDS011;67584;51.400;6.692;2023-06-26T05:11:18;7.20;;;5.25;;
78324;SDS011;67584;51.400;6.692;2023-06-26T05:13:44;9.75;;;5.80;;
78324;SDS011;67584;51.400;6.692;2023-06-26T05:16:10;6.00;;;4.35;;
78324;SDS011;67584;51.400;6.692;2023-06-26T05:18:35;7.85;;;5.03;;
78324;SDS011;67584;51.400;6.692;2023-06-26T05:21:01;7.80;;;5.00;;
78324;SDS011;67584;51.400;6.692;2023-06-26T05:23:30;5.50;;;4.85;;
78324;SDS011;67584;51.400;6.692;2023-06-26T05:25:57;7.47;;;4.93;;
78324;SDS011;67584;51.400;6.692;2023-06-26T05:28:25;7.25;;;5.43;;
78324;SDS011;67584;51.400;6.692;2023-06-26T05:30:53;6.03;;;4.30;;
78324;SDS011;67584;51.400;6.692;2023-06-26T05:33:20;7.72;;;4.45;;
78324;SDS011;67584;51.400;6.692;2023-06-26T05:35:48;7.75;;;4.38;;
78324;SDS011;67584;51.400;6.692;2023-06-26T05:38:16;6.95;;;4.40;;
78324;SDS011;67584;51.400;6.692;2023-06-26T05:40:42;7.75;;;4.88;;
78324;SDS011;67584;51.400;6.692;2023-06-26T05:43:08;7.78;;;4.35;;
78324;SDS011;67584;51.400;6.692;2023-06-26T05:45:34;10.93;;;4.97;;
78324;SDS011;67584;51.400;6.692;2023-06-26T05:47:59;8.05;;;5.93;;
78324;SDS011;67584;51.400;6.692;2023-06-26T05:50:25;8.40;;;5.30;;
78324;SDS011;67584;51.400;6.692;2023-06-26T05:52:51;4.90;;;4.35;;
78324;SDS011;67584;51.400;6.692;2023-06-26T05:55:18;7.45;;;5.07;;
78324;SDS011;67584;51.400;6.692;2023-06-26T05:57:44;7.47;;;5.50;;
78324;SDS011;67584;51.400;6.692;2023-06-26T06:00:11;6.25;;;4.65;;
78324;SDS011;67584;51.400;6.692;2023-06-26T06:02:41;8.63;;;5.40;;
78324;SDS011;67584;51.400;6.692;2023-06-26T06:05:07;6.05;;;4.57;;
78324;SDS011;67584;51.400;6.692;2023-06-26T06:07:33;7.57;;;4.85;;
78324;SDS011;67584;51.400;6.692;2023-06-26T06:10:00;8.40;;;4.82;;
78324;SDS011;67584;51.400;6.692;2023-06-26T06:12:27;6.10;;;4.30;;
78324;SDS011;67584;51.400;6.692;2023-06-26T06:14:54;7.30;;;4.72;;
78324;SDS011;67584;51.400;6.692;2023-06-26T06:17:20;6.10;;;4.35;;
78324;SDS011;67584;51.400;6.692;2023-06-26T06:19:46;8.23;;;5.18;;
78324;SDS011;67584;51.400;6.692;2023-06-26T06:22:12;7.63;;;4.88;;
78324;SDS011;67584;51.400;6.692;2023-06-26T06:24:37;6.28;;;4.22;;
78324;SDS011;67584;51.400;6.692;2023-06-26T06:27:03;9.68;;;5.70;;
78324;SDS011;67584;51.400;6.692;2023-06-26T06:29:29;6.95;;;5.72;;
78324;SDS011;67584;51.400;6.692;2023-06-26T06:31:54;8.63;;;4.75;;
78324;SDS011;67584;51.400;6.692;2023-06-26T06:34:20;7.80;;;5.10;;
78324;SDS011;67584;51.400;6.692;2023-06-26T06:36:46;9.52;;;5.13;;
78324;SDS011;67584;51.400;6.692;2023-06-26T06:39:12;6.95;;;4.50;;
78324;SDS011;67584;51.400;6.692;2023-06-26T06:41:38;8.90;;;5.32;;
78324;SDS011;67584;51.400;6.692;2023-06-26T06:44:05;6.72;;;4.63;;
78324;SDS011;67584;51.400;6.692;2023-06-26T06:46:31;9.82;;;4.45;;
78324;SDS011;67584;51.400;6.692;2023-06-26T06:48:56;9.65;;;5.22;;
78324;SDS011;67584;51.400;6.692;2023-06-26T06:51:22;8.98;;;5.20;;
78324;SDS011;67584;51.400;6.692;2023-06-26T06:53:48;6.97;;;4.07;;
78324;SDS011;67584;51.400;6.692;2023-06-26T06:56:13;7.38;;;4.30;;
78324;SDS011;67584;51.400;6.692;2023-06-26T06:58:39;7.13;;;4.97;;
78324;SDS011;67584;51.400;6.692;2023-06-26T07:01:07;7.40;;;4.60;;
78324;SDS011;67584;51.400;6.692;2023-06-26T07:03:34;9.25;;;5.47;;
78324;SDS011;67584;51.400;6.692;2023-06-26T07:06:00;8.80;;;5.00;;
78324;SDS011;67584;51.400;6.692;2023-06-26T07:08:28;9.23;;;4.43;;
78324;SDS011;67584;51.400;6.692;2023-06-26T07:10:54;9.68;;;4.90;;
78324;SDS011;67584;51.400;6.692;2023-06-26T07:13:21;8.18;;;4.90;;
78324;SDS011;67584;51.400;6.692;2023-06-26T07:15:47;6.45;;;4.30;;
78324;SDS011;67584;51.400;6.692;2023-06-26T07:18:13;8.30;;;4.45;;
78324;SDS011;67584;51.400;6.692;2023-06-26T07:20:39;8.07;;;4.60;;
78324;SDS011;67584;51.400;6.692;2023-06-26T07:23:06;7.82;;;4.82;;
78324;SDS011;67584;51.400;6.692;2023-06-26T07:25:31;9.70;;;5.68;;
78324;SDS011;67584;51.400;6.692;2023-06-26T07:27:57;9.90;;;4.63;;
78324;SDS011;67584;51.400;6.692;2023-06-26T07:30:22;7.32;;;5.05;;
78324;SDS011;67584;51.400;6.692;2023-06-26T07:32:49;9.45;;;5.20;;
78324;SDS011;67584;51.400;6.692;2023-06-26T07:35:15;6.65;;;4.75;;
78324;SDS011;67584;51.400;6.692;2023-06-26T07:37:41;9.25;;;5.13;;
78324;SDS011;67584;51.400;6.692;2023-06-26T07:40:07;7.18;;;4.65;;
78324;SDS011;67584;51.400;6.692;2023-06-26T07:42:33;11.23;;;5.82;;
78324;SDS011;67584;51.400;6.692;2023-06-26T07:44:59;9.25;;;5.18;;
78324;SDS011;67584;51.400;6.692;2023-06-26T07:47:25;7.90;;;4.50;;
78324;SDS011;67584;51.400;6.692;2023-06-26T07:49:51;10.43;;;5.07;;
78324;SDS011;67584;51.400;6.692;2023-06-26T07:52:17;7.97;;;5.10;;
78324;SDS011;67584;51.400;6.692;2023-06-26T07:54:43;10.27;;;4.82;;
78324;SDS011;67584;51.400;6.692;2023-06-26T07:57:09;6.82;;;5.22;;
78324;SDS011;67584;51.400;6.692;2023-06-26T07:59:36;5.25;;;3.88;;
78324;SDS011;67584;51.400;6.692;2023-06-26T08:02:02;9.35;;;4.93;;
78324;SDS011;67584;51.400;6.692;2023-06-26T08:04:28;13.75;;;5.53;;
78324;SDS011;67584;51.400;6.692;2023-06-26T08:06:57;7.07;;;4.40;;
78324;SDS011;67584;51.400;6.692;2023-06-26T08:09:25;7.80;;;4.22;;
78324;SDS011;67584;51.400;6.692;2023-06-26T08:14:17;7.70;;;3.70;;
78324;SDS011;67584;51.400;6.692;2023-06-26T08:16:43;7.50;;;4.55;;
78324;SDS011;67584;51.400;6.692;2023-06-26T08:19:09;6.68;;;4.05;;
78324;SDS011;67584;51.400;6.692;2023-06-26T08:21:37;6.57;;;3.83;;
78324;SDS011;67584;51.400;6.692;2023-06-26T08:24:03;7.07;;;3.42;;
78324;SDS011;67584;51.400;6.692;2023-06-26T08:26:29;6.68;;;3.90;;
78324;SDS011;67584;51.400;6.692;2023-06-26T08:28:54;5.85;;;3.63;;
78324;SDS011;67584;51.400;6.692;2023-06-26T08:31:20;7.28;;;3.65;;
78324;SDS011;67584;51.400;6.692;2023-06-26T08:33:46;8.35;;;3.58;;
78324;SDS011;67584;51.400;6.692;2023-06-26T08:36:12;6.43;;;4.30;;
78324;SDS011;67584;51.400;6.692;2023-06-26T08:38:38;6.03;;;3.75;;
78324;SDS011;67584;51.400;6.692;2023-06-26T08:41:07;5.40;;;3.88;;
78324;SDS011;67584;51.400;6.692;2023-06-26T08:43:33;9.65;;;4.45;;
78324;SDS011;67584;51.400;6.692;2023-06-26T08:46:00;8.52;;;4.72;;
78324;SDS011;67584;51.400;6.692;2023-06-26T08:48:26;8.18;;;3.97;;
78324;SDS011;67584;51.400;6.692;2023-06-26T08:50:57;7.45;;;3.90;;
78324;SDS011;67584;51.400;6.692;2023-06-26T08:55:58;7.18;;;4.00;;
78324;SDS011;67584;51.400;6.692;2023-06-26T08:58:25;7.30;;;3.85;;
78324;SDS011;67584;51.400;6.692;2023-06-26T09:00:51;7.57;;;4.22;;
78324;SDS011;67584;51.400;6.692;2023-06-26T09:03:18;10.05;;;4.85;;
78324;SDS011;67584;51.400;6.692;2023-06-26T09:05:44;9.13;;;3.63;;
78324;SDS011;67584;51.400;6.692;2023-06-26T09:08:09;6.28;;;3.55;;
78324;SDS011;67584;51.400;6.692;2023-06-26T09:10:35;8.20;;;4.82;;
78324;SDS011;67584;51.400;6.692;2023-06-26T09:13:02;7.50;;;4.10;;
78324;SDS011;67584;51.400;6.692;2023-06-26T09:15:36;7.55;;;4.40;;
78324;SDS011;67584;51.400;6.692;2023-06-26T09:18:08;5.95;;;3.38;;
78324;SDS011;67584;51.400;6.692;2023-06-26T09:20:34;5.20;;;3.85;;
78324;SDS011;67584;51.400;6.692;2023-06-26T09:23:00;10.40;;;4.50;;
78324;SDS011;67584;51.400;6.692;2023-06-26T09:25:27;7.78;;;4.30;;
78324;SDS011;67584;51.400;6.692;2023-06-26T09:27:54;7.57;;;4.20;;
78324;SDS011;67584;51.400;6.692;2023-06-26T09:30:20;8.93;;;3.70;;
78324;SDS011;67584;51.400;6.692;2023-06-26T09:32:46;8.25;;;3.38;;
78324;SDS011;67584;51.400;6.692;2023-06-26T09:35:12;5.70;;;3.38;;
78324;SDS011;67584;51.400;6.692;2023-06-26T09:37:39;8.25;;;3.97;;
78324;SDS011;67584;51.400;6.692;2023-06-26T09:40:05;8.98;;;3.42;;
78324;SDS011;67584;51.400;6.692;2023-06-26T09:42:32;8.32;;;3.58;;
78324;SDS011;67584;51.400;6.692;2023-06-26T09:44:58;7.30;;;3.75;;
78324;SDS011;67584;51.400;6.692;2023-06-26T09:47:23;5.32;;;3.42;;
78324;SDS011;67584;51.400;6.692;2023-06-26T09:49:49;6.47;;;3.88;;
78324;SDS011;67584;51.400;6.692;2023-06-26T09:52:17;7.63;;;3.95;;
78324;SDS011;67584;51.400;6.692;2023-06-26T09:54:44;8.65;;;3.88;;
78324;SDS011;67584;51.400;6.692;2023-06-26T09:57:17;6.18;;;3.85;;
78324;SDS011;67584;51.400;6.692;2023-06-26T09:59:45;8.00;;;3.63;;
78324;SDS011;67584;51.400;6.692;2023-06-26T10:02:10;6.53;;;3.35;;
78324;SDS011;67584;51.400;6.692;2023-06-26T10:04:37;5.60;;;3.30;;
78324;SDS011;67584;51.400;6.692;2023-06-26T10:07:06;6.32;;;2.85;;
78324;SDS011;67584;51.400;6.692;2023-06-26T10:09:36;6.97;;;3.75;;
78324;SDS011;67584;51.400;6.692;2023-06-26T10:12:16;5.43;;;3.70;;
78324;SDS011;67584;51.400;6.692;2023-06-26T10:14:45;7.03;;;3.40;;
78324;SDS011;67584;51.400;6.692;2023-06-26T10:17:13;7.18;;;3.38;;
78324;SDS011;67584;51.400;6.692;2023-06-26T10:19:43;6.15;;;3.55;;
78324;SDS011;67584;51.400;6.692;2023-06-26T10:22:11;5.53;;;3.65;;
78324;SDS011;67584;51.400;6.692;2023-06-26T10:24:39;5.10;;;3.50;;
78324;SDS011;67584;51.400;6.692;2023-06-26T10:27:21;6.57;;;3.67;;
78324;SDS011;67584;51.400;6.692;2023-06-26T10:29:51;3.10;;;2.65;;
78324;SDS011;67584;51.400;6.692;2023-06-26T10:32:20;4.07;;;2.83;;
78324;SDS011;67584;51.400;6.692;2023-06-26T10:34:48;4.50;;;3.53;;
78324;SDS011;67584;51.400;6.692;2023-06-26T10:37:14;3.83;;;2.78;;
78324;SDS011;67584;51.400;6.692;2023-06-26T10:39:50;3.53;;;2.88;;
78324;SDS011;67584;51.400;6.692;2023-06-26T10:42:19;5.32;;;3.75;;
78324;SDS011;67584;51.400;6.692;2023-06-26T10:44:59;5.45;;;2.80;;
78324;SDS011;67584;51.400;6.692;2023-06-26T10:47:41;4.25;;;3.08;;
78324;SDS011;67584;51.400;6.692;2023-06-26T10:50:20;5.13;;;2.90;;
78324;SDS011;67584;51.400;6.692;2023-06-26T10:53:08;5.05;;;3.05;;
78324;SDS011;67584;51.400;6.692;2023-06-26T10:55:34;5.00;;;2.85;;
78324;SDS011;67584;51.400;6.692;2023-06-26T10:58:26;5.63;;;2.63;;
78324;SDS011;67584;51.400;6.692;2023-06-26T11:06:28;4.53;;;2.65;;
78324;SDS011;67584;51.400;6.692;2023-06-26T11:08:59;3.10;;;2.10;;
78324;SDS011;67584;51.400;6.692;2023-06-26T11:14:20;3.13;;;1.98;;
78324;SDS011;67584;51.400;6.692;2023-06-26T11:16:47;3.70;;;2.05;;
78324;SDS011;67584;51.400;6.692;2023-06-26T11:19:18;4.88;;;2.20;;
78324;SDS011;67584;51.400;6.692;2023-06-26T11:21:45;5.03;;;2.60;;
78324;SDS011;67584;51.400;6.692;2023-06-26T11:24:12;3.40;;;2.55;;
78324;SDS011;67584;51.400;6.692;2023-06-26T11:26:38;2.53;;;2.15;;
78324;SDS011;67584;51.400;6.692;2023-06-26T11:29:05;2.10;;;1.70;;
78324;SDS011;67584;51.400;6.692;2023-06-26T11:31:35;2.75;;;2.25;;
78324;SDS011;67584;51.400;6.692;2023-06-26T11:34:03;1.92;;;1.77;;
78324;SDS011;67584;51.400;6.692;2023-06-26T11:36:38;5.43;;;2.30;;
78324;SDS011;67584;51.400;6.692;2023-06-26T11:39:05;2.72;;;1.88;;
78324;SDS011;67584;51.400;6.692;2023-06-26T11:41:32;2.13;;;1.90;;
78324;SDS011;67584;51.400;6.692;2023-06-26T11:44:05;5.25;;;2.40;;
78324;SDS011;67584;51.400;6.692;2023-06-26T11:49:08;4.70;;;1.98;;
78324;SDS011;67584;51.400;6.692;2023-06-26T11:51:34;4.40;;;2.03;;
78324;SDS011;67584;51.400;6.692;2023-06-26T11:54:01;2.92;;;1.63;;
78324;SDS011;67584;51.400;6.692;2023-06-26T11:59:04;4.22;;;1.60;;
78324;SDS011;67584;51.400;6.692;2023-06-26T12:01:35;2.10;;;1.60;;
78324;SDS011;67584;51.400;6.692;2023-06-26T12:04:03;3.38;;;1.60;;
78324;SDS011;67584;51.400;6.692;2023-06-26T12:06:31;1.90;;;1.60;;
78324;SDS011;67584;51.400;6.692;2023-06-26T12:08:59;1.85;;;1.60;;
78324;SDS011;67584;51.400;6.692;2023-06-26T12:11:26;3.55;;;1.83;;
78324;SDS011;67584;51.400;6.692;2023-06-26T12:13:53;3.08;;;1.50;;
78324;SDS011;67584;51.400;6.692;2023-06-26T12:16:19;1.75;;;1.45;;
78324;SDS011;67584;51.400;6.692;2023-06-26T12:18:46;2.53;;;1.60;;
78324;SDS011;67584;51.400;6.692;2023-06-26T12:21:27;2.53;;;1.50;;
78324;SDS011;67584;51.400;6.692;2023-06-26T12:24:00;5.25;;;2.13;;
78324;SDS011;67584;51.400;6.692;2023-06-26T12:26:26;5.25;;;1.67;;
78324;SDS011;67584;51.400;6.692;2023-06-26T12:28:54;2.80;;;1.77;;
78324;SDS011;67584;51.400;6.692;2023-06-26T12:31:33;3.53;;;1.80;;
78324;SDS011;67584;51.400;6.692;2023-06-26T12:33:59;2.75;;;1.58;;
78324;SDS011;67584;51.400;6.692;2023-06-26T12:36:25;3.47;;;1.38;;
78324;SDS011;67584;51.400;6.692;2023-06-26T12:38:52;2.97;;;2.15;;
78324;SDS011;67584;51.400;6.692;2023-06-26T12:41:19;2.63;;;2.22;;
78324;SDS011;67584;51.400;6.692;2023-06-26T12:43:45;4.07;;;2.17;;
78324;SDS011;67584;51.400;6.692;2023-06-26T12:46:11;3.75;;;1.50;;
78324;SDS011;67584;51.400;6.692;2023-06-26T12:51:11;2.45;;;1.60;;
78324;SDS011;67584;51.400;6.692;2023-06-26T12:53:37;3.55;;;1.98;;
78324;SDS011;67584;51.400;6.692;2023-06-26T12:56:10;3.30;;;1.95;;
78324;SDS011;67584;51.400;6.692;2023-06-26T12:58:36;4.78;;;2.35;;
78324;SDS011;67584;51.400;6.692;2023-06-26T13:01:03;2.00;;;1.80;;
78324;SDS011;67584;51.400;6.692;2023-06-26T13:03:31;3.90;;;2.10;;
78324;SDS011;67584;51.400;6.692;2023-06-26T13:05:56;3.65;;;1.83;;
78324;SDS011;67584;51.400;6.692;2023-06-26T13:08:22;4.60;;;1.58;;
78324;SDS011;67584;51.400;6.692;2023-06-26T13:10:48;3.53;;;1.85;;
78324;SDS011;67584;51.400;6.692;2023-06-26T13:13:14;3.15;;;2.08;;
78324;SDS011;67584;51.400;6.692;2023-06-26T13:15:39;2.65;;;1.80;;
78324;SDS011;67584;51.400;6.692;2023-06-26T13:18:05;3.58;;;1.35;;
78324;SDS011;67584;51.400;6.692;2023-06-26T13:20:31;2.75;;;1.50;;
78324;SDS011;67584;51.400;6.692;2023-06-26T13:22:56;2.20;;;1.60;;
78324;SDS011;67584;51.400;6.692;2023-06-26T13:25:22;2.90;;;1.92;;
78324;SDS011;67584;51.400;6.692;2023-06-26T13:27:48;3.47;;;2.38;;
78324;SDS011;67584;51.400;6.692;2023-06-26T13:30:17;2.40;;;1.77;;
78324;SDS011;67584;51.400;6.692;2023-06-26T13:32:42;2.63;;;1.70;;
78324;SDS011;67584;51.400;6.692;2023-06-26T13:35:08;3.63;;;1.77;;
78324;SDS011;67584;51.400;6.692;2023-06-26T13:37:34;3.08;;;2.03;;
78324;SDS011;67584;51.400;6.692;2023-06-26T13:40:02;6.32;;;2.08;;
78324;SDS011;67584;51.400;6.692;2023-06-26T13:42:28;3.25;;;1.75;;
78324;SDS011;67584;51.400;6.692;2023-06-26T13:44:54;3.25;;;2.13;;
78324;SDS011;67584;51.400;6.692;2023-06-26T13:47:20;2.28;;;1.77;;
78324;SDS011;67584;51.400;6.692;2023-06-26T13:49:46;4.40;;;1.92;;
78324;SDS011;67584;51.400;6.692;2023-06-26T13:52:12;3.88;;;1.92;;
78324;SDS011;67584;51.400;6.692;2023-06-26T13:54:37;2.42;;;1.90;;
78324;SDS011;67584;51.400;6.692;2023-06-26T13:57:05;2.33;;;1.60;;
78324;SDS011;67584;51.400;6.692;2023-06-26T13:59:32;3.92;;;2.00;;
78324;SDS011;67584;51.400;6.692;2023-06-26T14:01:58;2.85;;;1.77;;
78324;SDS011;67584;51.400;6.692;2023-06-26T14:04:24;2.38;;;2.17;;
78324;SDS011;67584;51.400;6.692;2023-06-26T14:06:50;2.10;;;1.70;;
78324;SDS011;67584;51.400;6.692;2023-06-26T14:09:16;3.15;;;2.13;;
78324;SDS011;67584;51.400;6.692;2023-06-26T14:11:41;3.58;;;2.00;;
78324;SDS011;67584;51.400;6.692;2023-06-26T14:14:08;2.70;;;1.98;;
78324;SDS011;67584;51.400;6.692;2023-06-26T14:16:34;3.20;;;2.05;;
78324;SDS011;67584;51.400;6.692;2023-06-26T14:18:59;3.55;;;1.70;;
78324;SDS011;67584;51.400;6.692;2023-06-26T14:21:25;2.25;;;1.73;;
78324;SDS011;67584;51.400;6.692;2023-06-26T14:23:53;2.50;;;1.90;;
78324;SDS011;67584;51.400;6.692;2023-06-26T14:26:19;2.33;;;1.83;;
78324;SDS011;67584;51.400;6.692;2023-06-26T14:28:45;2.17;;;1.60;;
78324;SDS011;67584;51.400;6.692;2023-06-26T14:31:11;3.00;;;1.67;;
78324;SDS011;67584;51.400;6.692;2023-06-26T14:33:37;2.20;;;1.80;;
78324;SDS011;67584;51.400;6.692;2023-06-26T14:36:03;2.63;;;1.65;;
78324;SDS011;67584;51.400;6.692;2023-06-26T14:38:29;2.70;;;1.92;;
78324;SDS011;67584;51.400;6.692;2023-06-26T14:40:54;4.43;;;2.38;;
78324;SDS011;67584;51.400;6.692;2023-06-26T14:43:20;2.35;;;1.73;;
78324;SDS011;67584;51.400;6.692;2023-06-26T14:45:46;2.17;;;1.55;;
78324;SDS011;67584;51.400;6.692;2023-06-26T14:48:12;3.88;;;1.80;;
78324;SDS011;67584;51.400;6.692;2023-06-26T14:50:37;2.33;;;1.70;;
78324;SDS011;67584;51.400;6.692;2023-06-26T14:53:03;3.75;;;1.80;;
78324;SDS011;67584;51.400;6.692;2023-06-26T14:55:29;2.17;;;1.73;;
78324;SDS011;67584;51.400;6.692;2023-06-26T14:57:55;2.53;;;1.42;;
78324;SDS011;67584;51.400;6.692;2023-06-26T15:00:20;1.80;;;1.60;;
78324;SDS011;67584;51.400;6.692;2023-06-26T15:02:46;3.00;;;1.80;;
78324;SDS011;67584;51.400;6.692;2023-06-26T15:05:12;3.78;;;1.58;;
78324;SDS011;67584;51.400;6.692;2023-06-26T15:07:38;4.20;;;1.77;;
78324;SDS011;67584;51.400;6.692;2023-06-26T15:10:04;2.55;;;1.42;;
78324;SDS011;67584;51.400;6.692;2023-06-26T15:12:31;1.92;;;1.40;;